Time;durP1;ratioP1;P1;durP2;ratioP2;P2;SDS_P1;SDS_P2;PMS_P1;PMS_P2;Temp;Humidity;BMP_temperature;BMP_pressure;BME280_temperature;BME280_humidity;BME280_pressure;Samples;Min_cycle;Max_cycle;Signal;HPM_P1;HPM_P2
2023/01/17 00:02:22;;;;;;;;;22.00;21.75;;;;;4.13;84.12;98052.75;5057121;28;45531;-73
2023/01/17 00:10:17;;;;;;;;;11.75;11.75;;;;;4.10;84.55;98048.53;5039239;28;45423;-74
2023/01/17 00:12:48;;;;;;;;;15.75;15.75;;;;;4.07;84.40;98052.16;5038917;28;45374;-73
2023/01/17 00:15:15;;;;;;;;;22.00;20.00;;;;;4.07;84.32;98046.09;5040150;28;45331;-73
2023/01/17 00:17:41;;;;;;;;;12.50;12.50;;;;;4.01;84.25;98036.03;5055543;28;45532;-74
2023/01/17 01:35:00;;;;;;;;;9.25;9.25;;;;;3.88;85.77;98002.88;5056535;28;45876;-72
2023/01/17 01:37:25;;;;;;;;;8.25;8.25;;;;;3.87;86.23;97990.78;5055760;28;66303;-73
2023/01/17 01:39:50;;;;;;;;;8.25;8.25;;;;;3.92;85.72;97999.19;5056789;28;45300;-74
2023/01/17 01:42:16;;;;;;;;;8.75;8.75;;;;;3.93;85.76;97994.84;5058122;28;45532;-73
2023/01/17 01:44:50;;;;;;;;;12.00;9.00;;;;;3.86;85.46;97993.50;5051273;28;45579;-73
2023/01/17 01:47:31;;;;;;;;;11.25;10.00;;;;;3.94;85.69;97997.34;5036230;28;45246;-73
2023/01/17 01:50:00;;;;;;;;;7.50;7.50;;;;;3.94;85.28;97996.53;5036500;28;45433;-72
2023/01/17 01:52:29;;;;;;;;;8.00;8.00;;;;;3.86;85.61;97977.91;5036773;28;45346;-73
2023/01/17 01:54:59;;;;;;;;;10.25;8.50;;;;;3.91;85.43;97979.31;5036288;28;45295;-73
2023/01/17 01:57:28;;;;;;;;;8.00;8.00;;;;;3.89;85.55;97975.13;5035957;28;45366;-74
2023/01/17 02:00:01;;;;;;;;;9.75;9.75;;;;;3.91;85.76;97974.09;5035888;28;45469;-74
2023/01/17 02:02:30;;;;;;;;;8.00;8.00;;;;;3.91;85.15;97981.91;5037221;28;45540;-72
2023/01/17 02:04:57;;;;;;;;;11.25;11.25;;;;;3.92;85.42;97974.97;5036297;28;45382;-73
2023/01/17 02:07:29;;;;;;;;;8.00;8.00;;;;;3.67;85.61;97932.06;5036368;28;45389;-72
2023/01/17 02:09:56;;;;;;;;;8.00;8.00;;;;;3.91;85.91;97966.31;5035999;28;45343;-75
2023/01/17 02:12:22;;;;;;;;;7.00;7.00;;;;;3.86;85.89;97951.88;5036846;28;45326;-74
2023/01/17 02:14:47;;;;;;;;;10.00;10.00;;;;;3.91;86.18;97957.69;5036410;28;45396;-73
2023/01/17 02:17:50;;;;;;;;;9.00;9.00;;;;;3.92;86.30;97951.56;5048205;28;45341;-72
2023/01/17 02:20:36;;;;;;;;;7.00;7.00;;;;;3.92;86.41;97947.16;5038660;28;45421;-73
2023/01/17 02:23:13;;;;;;;;;7.75;7.75;;;;;3.92;86.21;97941.97;5035463;28;45286;-74
2023/01/17 02:26:20;;;;;;;;;8.75;8.75;;;;;3.91;86.31;97942.91;5035395;28;45313;-73
2023/01/17 02:29:28;;;;;;;;;7.75;7.75;;;;;3.91;86.10;97937.69;5036914;28;45323;-73
2023/01/17 02:32:00;;;;;;;;;11.25;11.25;;;;;3.88;86.06;97926.63;5036032;28;45358;-73
2023/01/17 02:34:34;;;;;;;;;8.00;8.00;;;;;3.89;86.21;97926.53;5035895;28;45347;-73
2023/01/17 02:37:17;;;;;;;;;6.75;6.75;;;;;3.91;86.61;97923.88;5037700;28;45352;-73
2023/01/17 02:39:52;;;;;;;;;7.75;7.75;;;;;3.90;87.06;97924.78;5054041;28;46250;-74
2023/01/17 02:42:25;;;;;;;;;10.75;10.75;;;;;3.89;86.70;97916.13;5039468;28;45310;-73
2023/01/17 02:44:51;;;;;;;;;14.00;14.00;;;;;3.91;86.58;97913.47;5045491;28;45438;-73
2023/01/17 02:47:27;;;;;;;;;14.00;14.00;;;;;3.88;86.38;97905.84;5046705;28;45472;-72
2023/01/17 02:50:00;;;;;;;;;16.50;16.50;;;;;3.87;85.91;97899.78;5053647;28;45924;-73
2023/01/17 02:53:02;;;;;;;;;16.00;16.00;;;;;3.86;86.43;97892.06;5053529;28;45429;-73
2023/01/17 02:55:28;;;;;;;;;22.25;20.00;;;;;3.83;85.96;97885.28;5053044;28;45255;-72
2023/01/17 02:58:12;;;;;;;;;16.75;16.75;;;;;3.79;85.85;97886.38;5036121;28;46019;-73
2023/01/17 03:00:49;;;;;;;;;18.25;18.00;;;;;3.78;85.79;97869.09;5053408;28;45437;-73
2023/01/17 03:03:44;;;;;;;;;20.50;20.50;;;;;3.77;86.58;97864.81;5055572;28;45388;-73
2023/01/17 03:06:12;;;;;;;;;17.50;17.50;;;;;3.74;86.57;97859.78;5035809;28;45337;-73
2023/01/17 03:08:43;;;;;;;;;17.50;17.50;;;;;3.72;86.80;97844.28;5036811;28;45388;-73
2023/01/17 03:11:10;;;;;;;;;16.75;16.75;;;;;3.71;86.51;97846.97;5037796;28;45456;-73
2023/01/17 03:13:36;;;;;;;;;18.00;18.00;;;;;3.69;86.46;97841.81;5035344;28;45275;-73
2023/01/17 03:16:10;;;;;;;;;21.50;20.00;;;;;3.67;86.62;97838.47;5036679;28;45540;-72
2023/01/17 03:18:36;;;;;;;;;21.25;19.25;;;;;3.67;86.38;97848.06;5070918;27;47718;-74
2023/01/17 03:21:01;;;;;;;;;18.00;18.00;;;;;3.64;86.34;97834.31;5053350;28;45439;-72
2023/01/17 03:23:27;;;;;;;;;19.50;18.75;;;;;3.65;86.52;97833.38;5055581;28;45405;-74
2023/01/17 03:25:52;;;;;;;;;20.50;20.50;;;;;3.62;86.76;97820.56;5054792;28;47560;-72
2023/01/17 03:28:17;;;;;;;;;20.75;20.75;;;;;3.56;86.41;97817.44;5037374;28;46501;-73
2023/01/17 03:30:43;;;;;;;;;19.50;19.50;;;;;3.62;86.80;97823.16;5035213;28;45434;-73
2023/01/17 03:33:08;;;;;;;;;20.25;20.25;;;;;3.59;86.42;97814.66;5036012;28;45466;-74
2023/01/17 03:35:33;;;;;;;;;18.50;18.50;;;;;3.60;86.81;97822.41;5035525;28;45138;-72
2023/01/17 03:37:59;;;;;;;;;19.00;19.00;;;;;3.55;87.08;97815.78;5033624;28;47118;-73
2023/01/17 03:40:24;;;;;;;;;14.50;14.50;;;;;3.52;86.17;97806.41;5067190;27;45255;-73
2023/01/17 03:42:49;;;;;;;;;20.25;19.75;;;;;3.54;86.69;97806.31;5033468;28;45335;-73
2023/01/17 03:45:15;;;;;;;;;22.25;22.25;;;;;3.46;86.91;97804.16;5051537;28;45527;-73
2023/01/17 03:47:40;;;;;;;;;19.50;19.50;;;;;3.44;87.26;97801.63;5054640;28;46125;-72
2023/01/17 03:50:06;;;;;;;;;19.25;19.25;;;;;3.39;86.63;97795.84;5054967;28;45291;-73
2023/01/17 03:52:32;;;;;;;;;17.75;17.75;;;;;3.53;86.60;97812.41;5087318;27;45246;-72
2023/01/17 03:54:57;;;;;;;;;18.50;18.50;;;;;3.52;87.44;97809.00;5055006;28;45210;-72
2023/01/17 03:57:22;;;;;;;;;18.00;17.50;;;;;3.55;87.56;97801.03;5069698;28;46258;-72
2023/01/17 03:59:48;;;;;;;;;19.25;18.25;;;;;3.55;86.94;97803.63;5053369;28;45277;-73
2023/01/17 04:02:13;;;;;;;;;14.25;14.25;;;;;3.50;86.57;97796.06;5053954;28;45438;-72
2023/01/17 04:04:38;;;;;;;;;17.75;17.75;;;;;3.54;86.43;97803.69;5053582;28;45720;-74
2023/01/17 04:07:04;;;;;;;;;17.50;17.50;;;;;3.48;86.46;97784.94;5052275;28;46817;-73
2023/01/17 04:09:32;;;;;;;;;14.50;14.50;;;;;3.51;86.40;97791.72;5043495;28;45374;-73
2023/01/17 04:11:59;;;;;;;;;14.25;14.25;;;;;3.43;86.99;97775.72;5046252;28;45321;-73
2023/01/17 04:14:24;;;;;;;;;16.00;16.00;;;;;3.47;87.04;97785.03;5054685;28;45461;-75
2023/01/17 04:16:50;;;;;;;;;16.75;15.75;;;;;3.50;86.45;97784.84;5047716;28;46275;-74
2023/01/17 04:19:16;;;;;;;;;16.00;14.75;;;;;3.44;87.05;97777.41;5053103;28;45450;-73
2023/01/17 04:21:41;;;;;;;;;15.50;15.50;;;;;3.49;86.75;97789.19;5053658;28;45432;-73
2023/01/17 04:24:07;;;;;;;;;14.00;13.25;;;;;3.41;86.51;97772.38;5052104;28;45632;-74
2023/01/17 04:26:32;;;;;;;;;13.25;13.25;;;;;3.47;86.91;97782.44;5035782;28;46278;-71
2023/01/17 04:28:57;;;;;;;;;13.50;13.50;;;;;3.45;86.56;97774.69;5053930;28;62827;-72
2023/01/17 04:31:22;;;;;;;;;17.00;17.00;;;;;3.48;86.93;97786.72;5056337;28;45201;-72
2023/01/17 04:33:48;;;;;;;;;17.25;15.50;;;;;3.42;87.90;97774.06;5046482;28;45213;-73
2023/01/17 04:36:13;;;;;;;;;11.75;11.75;;;;;3.51;87.01;97776.13;5041496;28;45515;-74
2023/01/17 04:38:38;;;;;;;;;13.75;13.75;;;;;3.50;87.63;97774.47;5053697;28;45402;-73
2023/01/17 04:41:04;;;;;;;;;15.75;15.75;;;;;3.50;87.46;97759.69;5054018;28;47385;-73
2023/01/17 04:43:29;;;;;;;;;14.75;14.75;;;;;3.56;86.70;97773.25;5056440;28;46097;-72
2023/01/17 04:45:56;;;;;;;;;16.50;16.50;;;;;3.57;87.57;97764.53;5056094;28;46446;-72
2023/01/17 04:48:22;;;;;;;;;13.00;13.00;;;;;3.58;87.00;97772.25;5051558;28;45659;-73
2023/01/17 04:50:48;;;;;;;;;15.50;15.50;;;;;3.60;86.76;97761.75;5040537;28;45397;-72
2023/01/17 04:53:14;;;;;;;;;14.25;13.75;;;;;3.57;86.64;97760.19;5038905;28;54714;-73
2023/01/17 04:55:39;;;;;;;;;14.75;14.00;;;;;3.60;87.13;97764.38;5066493;27;45234;-73
2023/01/17 04:58:04;;;;;;;;;17.25;17.25;;;;;3.61;86.98;97759.09;5065955;28;45619;-73
2023/01/17 05:00:30;;;;;;;;;12.00;12.00;;;;;3.56;87.04;97748.13;5059754;28;45284;-73
2023/01/17 05:02:55;;;;;;;;;14.25;14.25;;;;;3.59;87.18;97747.09;5062231;28;45720;-73
2023/01/17 05:05:21;;;;;;;;;17.00;15.75;;;;;3.56;86.95;97744.66;5059450;28;45433;-73
2023/01/17 05:07:53;;;;;;;;;14.00;14.00;;;;;3.59;87.26;97744.50;5056968;28;45231;-73
2023/01/17 05:10:19;;;;;;;;;13.00;13.00;;;;;3.60;87.07;97748.75;5048011;28;45205;-73
2023/01/17 05:12:52;;;;;;;;;13.50;13.00;;;;;3.59;87.00;97740.16;5057437;28;45246;-74
2023/01/17 05:15:18;;;;;;;;;19.00;17.75;;;;;3.60;86.63;97738.38;5057302;28;46285;-73
2023/01/17 05:17:43;;;;;;;;;12.75;12.75;;;;;3.57;86.27;97729.00;5057807;28;56915;-72
2023/01/17 05:20:09;;;;;;;;;14.75;14.75;;;;;3.55;86.95;97730.84;5056912;28;45213;-73
2023/01/17 05:22:34;;;;;;;;;15.50;15.50;;;;;3.54;86.49;97721.38;5063403;28;45528;-74
2023/01/17 05:25:00;;;;;;;;;16.00;16.00;;;;;3.52;87.23;97720.63;5062851;28;45388;-72
2023/01/17 05:27:25;;;;;;;;;18.25;17.50;;;;;3.49;86.87;97711.22;5044011;28;58824;-72
2023/01/17 05:29:51;;;;;;;;;17.50;17.50;;;;;3.48;86.06;97713.94;5039340;28;45412;-73
2023/01/17 05:32:16;;;;;;;;;15.00;15.00;;;;;3.47;87.15;97720.06;5036771;28;45228;-73
2023/01/17 05:34:41;;;;;;;;;16.25;16.25;;;;;3.43;85.88;97713.38;5036498;28;45361;-74
2023/01/17 05:37:07;;;;;;;;;17.75;17.75;;;;;3.34;86.61;97699.97;5036698;28;45215;-73
2023/01/17 05:39:32;;;;;;;;;19.75;17.75;;;;;3.30;86.63;97698.47;5036974;28;60433;-74
2023/01/17 05:41:58;;;;;;;;;14.00;14.00;;;;;3.32;86.78;97704.41;5038407;28;45428;-72
2023/01/17 05:44:23;;;;;;;;;17.75;15.00;;;;;3.28;86.55;97696.88;5054982;28;45500;-73
2023/01/17 05:46:48;;;;;;;;;17.00;17.00;;;;;3.29;86.75;97691.59;5057066;28;48442;-73
2023/01/17 05:49:14;;;;;;;;;17.25;17.25;;;;;3.26;87.08;97693.53;5058608;28;45504;-73
2023/01/17 05:51:39;;;;;;;;;15.25;15.25;;;;;3.24;86.48;97692.78;5060895;28;45437;-73
2023/01/17 05:54:05;;;;;;;;;15.50;15.50;;;;;3.26;87.20;97691.78;5055812;28;45490;-72
2023/01/17 05:56:30;;;;;;;;;18.25;18.25;;;;;3.26;87.24;97693.53;5072276;28;45458;-73
2023/01/17 05:58:56;;;;;;;;;19.25;17.50;;;;;3.27;87.56;97693.44;5054943;28;45488;-73
2023/01/17 06:01:21;;;;;;;;;15.75;15.25;;;;;3.26;87.15;97683.97;5049238;28;45588;-73
2023/01/17 06:03:46;;;;;;;;;14.75;14.75;;;;;3.24;87.58;97685.84;5047733;28;45481;-73
2023/01/17 06:06:12;;;;;;;;;17.25;16.25;;;;;3.32;87.95;97691.44;5054906;28;45319;-74
2023/01/17 06:08:37;;;;;;;;;15.75;15.75;;;;;3.35;87.22;97688.66;5040840;28;45401;-72
2023/01/17 06:11:02;;;;;;;;;17.00;17.00;;;;;3.39;88.13;97688.47;5036253;28;45470;-71
2023/01/17 06:13:28;;;;;;;;;14.00;14.00;;;;;3.42;87.18;97683.09;5036393;28;45272;-71
2023/01/17 06:15:56;;;;;;;;;15.50;15.50;;;;;3.38;87.61;97668.63;5042155;28;45269;-72
2023/01/17 06:18:21;;;;;;;;;15.00;15.00;;;;;3.42;86.96;97678.72;5043373;28;45516;-72
2023/01/17 06:20:53;;;;;;;;;15.50;15.50;;;;;3.44;87.56;97681.25;5056391;28;45501;-73
2023/01/17 06:23:18;;;;;;;;;17.75;17.75;;;;;3.44;86.55;97676.88;5054555;28;46345;-72
2023/01/17 06:25:45;;;;;;;;;12.75;12.75;;;;;3.45;86.78;97680.31;5055081;28;45430;-72
2023/01/17 06:28:12;;;;;;;;;20.50;20.50;;;;;3.42;87.41;97670.09;5052952;28;45402;-72
2023/01/17 06:30:37;;;;;;;;;19.00;19.00;;;;;3.48;87.87;97683.56;5069935;27;45405;-71
2023/01/17 06:33:03;;;;;;;;;16.50;16.25;;;;;3.53;87.43;97685.91;5054657;28;45992;-72
2023/01/17 06:35:29;;;;;;;;;16.00;15.50;;;;;3.56;87.79;97682.28;5056235;28;45386;-72
2023/01/17 06:37:57;;;;;;;;;21.00;21.00;;;;;3.62;87.99;97677.59;5041329;28;45324;-73
2023/01/17 06:40:25;;;;;;;;;16.75;16.75;;;;;3.68;87.33;97680.75;5049736;28;45543;-71
2023/01/17 06:42:50;;;;;;;;;14.00;14.00;;;;;3.70;87.47;97682.31;5058057;28;47150;-73
2023/01/17 06:45:16;;;;;;;;;15.25;15.25;;;;;3.71;87.31;97683.16;5045021;28;45398;-72
2023/01/17 06:47:42;;;;;;;;;14.00;14.00;;;;;3.72;86.97;97677.03;5047957;28;45442;-71
2023/01/17 06:50:11;;;;;;;;;19.00;17.75;;;;;3.68;86.78;97676.38;5044765;28;45304;-72
2023/01/17 06:52:36;;;;;;;;;15.75;15.75;;;;;3.75;87.18;97684.66;5036797;28;46010;-73
2023/01/17 06:55:02;;;;;;;;;16.50;16.50;;;;;3.80;86.48;97682.63;5054220;28;45546;-71
2023/01/17 06:57:27;;;;;;;;;20.00;20.00;;;;;3.79;86.98;97671.41;5054091;28;45407;-74
2023/01/17 06:59:52;;;;;;;;;25.25;21.00;;;;;3.89;86.41;97687.28;5051923;28;45556;-73
2023/01/17 07:02:18;;;;;;;;;17.25;17.25;;;;;3.85;86.53;97664.97;5052631;28;54742;-72
2023/01/17 07:04:43;;;;;;;;;21.50;19.75;;;;;3.94;86.51;97682.63;5051102;28;45519;-72
2023/01/17 07:07:08;;;;;;;;;18.00;18.00;;;;;3.95;86.07;97676.50;5055027;28;45437;-72
2023/01/17 07:09:34;;;;;;;;;25.50;24.00;;;;;3.78;85.66;97651.53;5054113;28;45225;-72
2023/01/17 07:12:00;;;;;;;;;10.00;10.00;;;;;3.99;85.78;97677.19;5053556;28;46531;-72
2023/01/17 07:14:29;;;;;;;;;16.25;15.50;;;;;4.01;85.51;97690.06;5050158;28;45518;-73
2023/01/17 07:16:55;;;;;;;;;18.00;18.00;;;;;4.02;85.90;97670.94;5042890;28;45528;-73
2023/01/17 07:19:21;;;;;;;;;15.75;15.75;;;;;4.03;85.72;97673.47;5053515;28;45399;-73
2023/01/17 07:21:51;;;;;;;;;14.25;13.75;;;;;4.06;85.27;97675.88;5055799;28;45442;-73
2023/01/17 07:24:16;;;;;;;;;14.75;14.75;;;;;4.07;85.22;97680.16;5055104;28;45207;-73
2023/01/17 07:26:42;;;;;;;;;17.00;17.00;;;;;4.07;84.93;97674.09;5054598;28;45320;-73
2023/01/17 07:29:08;;;;;;;;;14.50;14.50;;;;;4.11;85.23;97683.38;5055416;28;45423;-73
2023/01/17 07:31:35;;;;;;;;;19.00;19.00;;;;;4.15;84.91;97687.47;5055056;28;46443;-74
2023/01/17 07:34:01;;;;;;;;;17.00;17.00;;;;;4.16;85.31;97683.13;5055411;28;45448;-73
2023/01/17 07:36:26;;;;;;;;;18.50;16.50;;;;;4.17;84.98;97675.22;5052538;28;46088;-73
2023/01/17 07:38:52;;;;;;;;;15.50;15.50;;;;;3.94;84.44;97643.63;5038747;28;45547;-74
2023/01/17 07:41:17;;;;;;;;;20.00;20.00;;;;;4.21;84.41;97675.88;5037089;28;46310;-73
2023/01/17 07:43:42;;;;;;;;;27.75;27.00;;;;;4.24;84.58;97680.88;5037041;28;45409;-74
2023/01/17 07:46:08;;;;;;;;;18.50;18.50;;;;;4.16;84.61;97663.13;5043310;28;45553;-72
2023/01/17 07:48:33;;;;;;;;;16.25;16.25;;;;;4.21;83.75;97674.09;5037291;28;45381;-72
2023/01/17 07:50:59;;;;;;;;;24.25;24.25;;;;;4.14;84.29;97664.16;5035460;28;46172;-74
2023/01/17 07:53:27;;;;;;;;;29.25;29.25;;;;;4.27;85.05;97677.28;5035429;28;45354;-72
2023/01/17 07:55:52;;;;;;;;;22.25;21.25;;;;;4.29;84.73;97672.81;5051161;28;45456;-71
2023/01/17 07:58:18;;;;;;;;;20.50;20.50;;;;;4.27;84.37;97675.50;5055299;28;45528;-77
2023/01/17 08:00:44;;;;;;;;;17.50;16.00;;;;;4.27;84.34;97685.91;5049233;28;45434;-76
2023/01/17 08:03:15;;;;;;;;;21.75;21.75;;;;;4.21;84.26;97671.50;5055490;28;45595;-75
2023/01/17 08:05:43;;;;;;;;;25.00;25.00;;;;;4.24;83.70;97679.13;5052705;28;45291;-76
2023/01/17 08:08:08;;;;;;;;;20.75;19.00;;;;;4.23;82.85;97684.41;5053836;28;45507;-78
2023/01/17 08:10:34;;;;;;;;;42.50;37.50;;;;;4.24;83.71;97689.56;5057201;28;46113;-80
2023/01/17 08:12:59;;;;;;;;;23.25;23.25;;;;;4.19;83.55;97683.75;5071929;27;45446;-75
2023/01/17 08:15:28;;;;;;;;;22.00;22.00;;;;;4.20;83.97;97690.63;5055553;28;45323;-75
2023/01/17 08:17:56;;;;;;;;;20.25;20.00;;;;;4.23;83.50;97687.84;5075262;28;45590;-77
2023/01/17 08:20:22;;;;;;;;;32.75;32.75;;;;;4.24;84.14;97686.94;5061514;28;45192;-74
2023/01/17 08:22:47;;;;;;;;;23.00;23.00;;;;;4.30;83.93;97696.13;5059406;28;45328;-74
2023/01/17 08:25:13;;;;;;;;;29.00;29.00;;;;;4.26;83.65;97688.63;5061933;28;45464;-73
2023/01/17 08:27:39;;;;;;;;;25.50;25.50;;;;;4.14;83.81;97659.78;5063599;28;45259;-72
2023/01/17 08:30:05;;;;;;;;;30.75;30.25;;;;;4.35;83.55;97690.66;5060848;28;45988;-74
2023/01/17 08:32:31;;;;;;;;;27.00;27.00;;;;;4.36;82.91;97695.75;5062337;28;45395;-71
2023/01/17 08:34:57;;;;;;;;;24.25;24.25;;;;;4.36;83.39;97694.94;5059511;28;45424;-72
2023/01/17 08:37:23;;;;;;;;;30.75;28.50;;;;;4.33;83.02;97687.31;5058011;28;45353;-72
2023/01/17 08:39:48;;;;;;;;;43.25;38.25;;;;;4.32;82.85;97694.28;5057000;28;46149;-74
2023/01/17 08:42:13;;;;;;;;;22.00;22.00;;;;;4.31;83.11;97690.00;5057249;28;45393;-72
2023/01/17 08:44:39;;;;;;;;;28.00;28.00;;;;;4.35;83.02;97699.28;5055930;28;45307;-71
2023/01/17 08:47:04;;;;;;;;;24.25;24.25;;;;;4.39;83.11;97689.53;5057444;28;45244;-72
2023/01/17 08:49:30;;;;;;;;;25.00;25.00;;;;;4.36;83.02;97682.75;5056682;28;46143;-72
2023/01/17 08:51:55;;;;;;;;;27.25;26.00;;;;;4.42;82.69;97684.16;5056913;28;45266;-72
2023/01/17 08:54:21;;;;;;;;;28.50;28.50;;;;;4.42;82.71;97684.16;5058219;28;45811;-72
2023/01/17 08:56:47;;;;;;;;;27.50;27.50;;;;;4.42;82.67;97676.34;5058925;28;45416;-71
2023/01/17 08:59:13;;;;;;;;;13.00;13.00;;;;;4.49;82.54;97680.22;5057634;28;46459;-72
2023/01/17 09:01:44;;;;;;;;;21.25;20.50;;;;;4.51;82.33;97678.38;5057539;28;45250;-72
2023/01/17 09:04:11;;;;;;;;;21.25;21.25;;;;;4.53;82.15;97675.66;5058020;28;45312;-73
2023/01/17 09:06:38;;;;;;;;;44.50;39.00;;;;;4.55;82.50;97681.59;5073869;28;45506;-72
2023/01/17 09:09:06;;;;;;;;;33.25;32.50;;;;;4.57;82.31;97673.72;5076318;27;46850;-73
2023/01/17 09:11:32;;;;;;;;;45.25;39.75;;;;;4.62;81.85;97671.66;5063757;28;45465;-75
2023/01/17 09:13:58;;;;;;;;;38.50;36.25;;;;;4.58;82.06;97673.59;5057818;28;45423;-72
2023/01/17 09:16:24;;;;;;;;;27.25;26.25;;;;;4.52;81.82;97659.22;5057700;28;45255;-72
2023/01/17 09:18:53;;;;;;;;;25.50;23.50;;;;;4.59;81.86;97670.06;5058376;28;46031;-72
2023/01/17 09:21:19;;;;;;;;;32.50;32.50;;;;;4.59;82.00;97670.06;5076280;28;45253;-72
2023/01/17 09:23:45;;;;;;;;;27.75;27.00;;;;;4.59;81.98;97669.25;5060632;28;45362;-72
2023/01/17 09:26:22;;;;;;;;;26.50;24.75;;;;;4.63;82.10;97670.72;5057922;28;45646;-73
2023/01/17 09:28:48;;;;;;;;;30.25;27.75;;;;;4.56;81.15;97670.25;5056861;28;45474;-70
2023/01/17 09:31:13;;;;;;;;;20.25;20.25;;;;;4.61;81.40;97669.97;5056982;28;45280;-72
2023/01/17 09:33:41;;;;;;;;;26.00;25.75;;;;;4.60;81.47;97663.09;5057340;28;45190;-72
2023/01/17 09:36:08;;;;;;;;;19.00;18.00;;;;;4.61;81.77;97677.78;5057069;28;45268;-73
2023/01/17 09:38:33;;;;;;;;;24.75;24.75;;;;;4.59;81.31;97674.44;5056403;28;45276;-71
2023/01/17 09:41:01;;;;;;;;;32.75;32.75;;;;;4.59;81.51;97674.44;5056179;28;46203;-71
2023/01/17 09:43:47;;;;;;;;;19.25;19.00;;;;;4.67;81.35;97687.81;5057349;28;45460;-72
2023/01/17 09:46:21;;;;;;;;;17.00;16.50;;;;;4.67;81.52;97683.44;5056397;28;45330;-72
2023/01/17 09:48:50;;;;;;;;;18.00;18.00;;;;;4.66;81.59;97689.56;5056785;28;45315;-71
2023/01/17 09:51:22;;;;;;;;;17.50;17.25;;;;;4.67;80.81;97691.25;5056534;28;45238;-73
2023/01/17 09:53:49;;;;;;;;;22.75;22.75;;;;;4.69;81.07;97696.38;5056499;28;45454;-71
2023/01/17 09:56:22;;;;;;;;;18.25;18.00;;;;;4.74;81.32;97693.47;5056537;28;45277;-72
2023/01/17 09:59:12;;;;;;;;;18.50;18.50;;;;;4.81;81.68;97697.38;5056291;28;46431;-70
2023/01/17 10:01:49;;;;;;;;;25.00;22.25;;;;;4.89;80.93;97699.50;5056818;28;45235;-72
2023/01/17 10:04:37;;;;;;;;;24.00;22.25;;;;;4.95;80.90;97705.16;5071607;28;45410;-73
2023/01/17 10:07:33;;;;;;;;;24.75;24.75;;;;;4.77;80.82;97669.84;5056607;28;45422;-73
2023/01/17 10:10:08;;;;;;;;;24.00;23.50;;;;;5.01;80.54;97716.13;5071167;28;47227;-72
2023/01/17 10:12:59;;;;;;;;;24.50;22.25;;;;;5.04;80.89;97719.34;5055673;28;45367;-71
2023/01/17 10:15:48;;;;;;;;;20.00;19.00;;;;;5.07;80.52;97713.94;5056197;28;45398;-71
2023/01/17 10:18:31;;;;;;;;;26.25;24.75;;;;;5.11;80.29;97719.81;5056461;28;45405;-72
2023/01/17 10:21:08;;;;;;;;;27.25;27.25;;;;;5.12;80.60;97711.06;5055565;28;46098;-72
2023/01/17 10:23:58;;;;;;;;;28.00;26.25;;;;;5.14;80.24;97711.81;5055864;28;45277;-72
2023/01/17 10:26:24;;;;;;;;;30.00;28.50;;;;;5.09;79.70;97709.47;5055204;28;45254;-72
2023/01/17 10:28:55;;;;;;;;;22.50;22.00;;;;;5.11;80.82;97714.59;5057635;28;45526;-73
2023/01/17 10:31:23;;;;;;;;;32.00;31.50;;;;;5.18;80.20;97717.63;5056872;28;45310;-72
2023/01/17 10:33:52;;;;;;;;;37.75;34.75;;;;;5.20;80.41;97713.16;5057035;28;45317;-72
2023/01/17 10:36:24;;;;;;;;;29.25;29.25;;;;;5.22;79.59;97711.28;5056823;28;45439;-72
2023/01/17 10:38:58;;;;;;;;;27.50;27.50;;;;;5.23;79.79;97713.81;5058188;28;45346;-70
2023/01/17 10:41:29;;;;;;;;;23.50;23.50;;;;;5.19;79.78;97709.75;5057867;28;47534;-71
2023/01/17 10:44:02;;;;;;;;;24.50;22.00;;;;;5.01;79.01;97679.66;5056019;28;45300;-72
2023/01/17 10:46:42;;;;;;;;;21.25;20.75;;;;;5.03;79.76;97685.59;5055675;28;45326;-71
2023/01/17 10:49:16;;;;;;;;;16.25;16.25;;;;;4.97;79.06;97676.41;5055897;28;45337;-70
2023/01/17 10:52:10;;;;;;;;;19.00;19.00;;;;;5.13;79.50;97699.72;5071268;27;48162;-70
2023/01/17 10:55:10;;;;;;;;;20.25;20.25;;;;;5.15;79.39;97697.00;5055636;28;45344;-71
2023/01/17 10:57:47;;;;;;;;;16.00;16.00;;;;;5.14;79.17;97693.56;5023685;27;45413;-71
2023/01/17 11:00:32;;;;;;;;;6.00;6.00;;;;;5.17;79.41;97695.97;5057504;28;45453;-71
2023/01/17 11:02:59;;;;;;;;;17.50;17.50;;;;;5.19;78.62;97691.50;5055992;28;46228;-73
2023/01/17 11:05:28;;;;;;;;;17.25;16.75;;;;;5.18;79.39;97681.16;5055747;28;45324;-73
2023/01/17 11:07:58;;;;;;;;;21.00;20.00;;;;;5.24;79.00;97680.75;5058613;28;45392;-72
2023/01/17 11:10:45;;;;;;;;;20.25;19.50;;;;;5.28;78.70;97684.00;5057426;28;45588;-72
2023/01/17 11:13:24;;;;;;;;;21.50;20.00;;;;;5.34;78.92;97675.78;5056355;28;46365;-71
2023/01/17 11:15:57;;;;;;;;;22.50;21.25;;;;;5.39;78.49;97669.34;5057407;28;45445;-72
2023/01/17 11:18:27;;;;;;;;;21.25;21.25;;;;;5.49;78.68;97671.34;5056857;28;45364;-72
2023/01/17 11:21:05;;;;;;;;;17.25;17.25;;;;;5.55;78.73;97671.78;5056419;28;45356;-73
2023/01/17 11:23:32;;;;;;;;;18.00;18.00;;;;;5.58;77.93;97672.50;5055164;28;46316;-73
2023/01/17 11:26:06;;;;;;;;;22.25;22.25;;;;;5.62;78.05;97674.81;5054879;28;45322;-71
2023/01/17 11:28:36;;;;;;;;;24.25;23.75;;;;;5.66;78.15;97671.06;5070389;28;45275;-72
2023/01/17 11:31:20;;;;;;;;;29.75;29.75;;;;;5.66;78.05;97670.22;5056541;28;45295;-72
2023/01/17 11:33:52;;;;;;;;;21.00;21.00;;;;;5.66;78.14;97678.88;5055606;28;46251;-71
2023/01/17 11:36:20;;;;;;;;;15.50;15.50;;;;;5.68;77.81;97682.22;5070828;28;45699;-73
2023/01/17 11:38:55;;;;;;;;;13.75;13.75;;;;;5.61;76.96;97669.69;5055175;28;45309;-71
2023/01/17 11:41:23;;;;;;;;;18.25;18.25;;;;;5.63;76.92;97668.66;5055782;28;45474;-72
2023/01/17 11:43:54;;;;;;;;;21.75;20.25;;;;;5.62;77.81;97667.00;5055332;28;45353;-72
2023/01/17 11:46:20;;;;;;;;;21.25;20.00;;;;;5.62;77.35;97663.53;5054795;28;45316;-72
2023/01/17 11:48:49;;;;;;;;;21.50;20.50;;;;;5.61;77.45;97670.53;5054838;28;45263;-72
2023/01/17 11:51:23;;;;;;;;;14.25;14.25;;;;;5.54;77.03;97664.88;5057250;28;45319;-72
2023/01/17 11:53:49;;;;;;;;;30.25;30.25;;;;;5.51;77.24;97654.66;5058128;28;46277;-72
2023/01/17 11:56:35;;;;;;;;;17.50;16.00;;;;;5.58;77.35;97667.28;5058910;28;45251;-73
2023/01/17 11:59:18;;;;;;;;;27.75;24.00;;;;;5.57;78.33;97658.66;5060536;28;45177;-73
2023/01/17 12:02:02;;;;;;;;;29.25;29.25;;;;;5.58;78.47;97655.09;5059785;28;45321;-72
2023/01/17 12:05:09;;;;;;;;;38.50;35.50;;;;;5.56;77.70;97656.97;5058457;28;46186;-71
2023/01/17 12:08:03;;;;;;;;;15.75;15.75;;;;;5.48;77.83;97649.66;5037000;28;45456;-71
2023/01/17 12:10:43;;;;;;;;;18.50;18.50;;;;;5.47;77.60;97647.16;5058961;28;45474;-72
2023/01/17 12:16:27;;;;;;;;;17.00;16.50;;;;;5.44;77.48;97649.97;5058292;28;45802;-70
2023/01/17 12:19:05;;;;;;;;;34.00;32.75;;;;;5.43;77.65;97643.91;5058281;28;45380;-71
2023/01/17 12:21:49;;;;;;;;;25.50;24.75;;;;;5.40;78.21;97644.97;5074097;28;45204;-70
2023/01/17 12:24:34;;;;;;;;;25.00;25.00;;;;;5.42;77.63;97637.03;5059031;28;45219;-71
2023/01/17 12:27:28;;;;;;;;;27.25;25.75;;;;;5.40;77.71;97631.06;5058228;28;46101;-73
2023/01/17 12:29:57;;;;;;;;;15.25;15.25;;;;;5.41;77.14;97632.75;5058653;28;45287;-72
2023/01/17 12:33:01;;;;;;;;;27.50;27.50;;;;;5.37;77.95;97637.34;5058417;28;45192;-72
2023/01/17 12:35:52;;;;;;;;;30.00;30.00;;;;;5.39;77.53;97639.84;5060278;28;45340;-71
2023/01/17 12:38:30;;;;;;;;;36.25;31.50;;;;;5.21;77.47;97611.44;5042729;28;46171;-71
2023/01/17 12:41:10;;;;;;;;;18.25;18.25;;;;;5.37;77.45;97642.56;5062660;28;45290;-72
2023/01/17 12:43:39;;;;;;;;;20.75;20.75;;;;;5.36;77.50;97627.84;5074081;28;45382;-72
2023/01/17 12:46:19;;;;;;;;;30.00;29.25;;;;;5.38;77.95;97628.59;5058841;28;45215;-73
2023/01/17 12:48:47;;;;;;;;;20.75;20.75;;;;;5.39;77.34;97632.88;5059226;28;46585;-71
2023/01/17 12:51:13;;;;;;;;;13.75;13.75;;;;;5.33;77.53;97628.06;5057723;28;45429;-70
2023/01/17 12:53:46;;;;;;;;;12.00;12.00;;;;;5.30;77.40;97627.41;5059641;28;45369;-73
2023/01/17 12:56:30;;;;;;;;;20.25;20.25;;;;;5.27;77.33;97625.81;5059096;28;45290;-72
2023/01/17 12:59:24;;;;;;;;;14.25;14.25;;;;;5.30;77.56;97627.41;5058372;28;46668;-71
2023/01/17 13:01:56;;;;;;;;;17.50;17.50;;;;;5.30;78.11;97625.66;5055836;28;45438;-71
2023/01/17 13:04:43;;;;;;;;;18.75;17.25;;;;;5.31;77.71;97629.09;5058091;28;45176;-74
2023/01/17 13:07:36;;;;;;;;;19.25;19.25;;;;;5.32;77.64;97623.78;5057373;28;45566;-73